createdAt,value
2016-12-18T11:35:00.204Z,21.33
2016-12-18T11:36:09.200Z,21.63
2016-12-18T11:37:18.179Z,21.64
2016-12-18T11:38:27.145Z,21.1
2016-12-18T11:39:36.477Z,20.31
2016-12-18T11:40:45.452Z,20
2016-12-18T11:41:54.427Z,19.8
2016-12-18T11:43:03.400Z,19.7
2016-12-18T11:44:12.373Z,19.7
2016-12-18T11:45:21.350Z,19.64
2016-12-18T11:46:30.328Z,19.72
2016-12-18T11:47:39.320Z,19.76
2016-12-18T11:48:48.372Z,19.67
2016-12-18T11:49:57.346Z,19.7
2016-12-18T11:51:06.324Z,19.76
2016-12-18T11:52:15.366Z,19.79
2016-12-18T11:53:24.344Z,19.82
2016-12-18T11:54:33.377Z,19.77
2016-12-18T11:55:42.762Z,19.87
2016-12-18T11:56:52.909Z,19.79
2016-12-18T11:58:02.064Z,19.88
2016-12-18T11:59:12.869Z,19.9
2016-12-18T12:00:24.074Z,19.91
2016-12-18T12:01:33.859Z,19.9
2016-12-18T12:02:42.835Z,20
2016-12-18T12:03:51.995Z,19.98
2016-12-18T12:05:00.984Z,19.9
2016-12-18T12:06:10.029Z,20.04
2016-12-18T12:07:19.029Z,20.13
2016-12-18T12:08:28.105Z,20.22
2016-12-18T12:09:37.078Z,20.09
2016-12-18T12:10:46.145Z,20.09
2016-12-18T12:11:55.140Z,20.07
2016-12-18T12:13:04.119Z,20.12
2016-12-18T12:14:13.095Z,20.15
2016-12-18T12:15:22.202Z,20.19
2016-12-18T12:16:31.197Z,20.3
2016-12-18T12:17:40.299Z,20.48
2016-12-18T12:18:49.293Z,20.57
2016-12-18T12:19:58.268Z,20.71
2016-12-18T12:21:07.483Z,20.75
2016-12-18T12:22:16.487Z,20.87
2016-12-18T12:23:25.630Z,20.78
2016-12-18T12:24:34.974Z,20.73
2016-12-18T12:25:43.955Z,20.76
2016-12-18T12:26:52.935Z,20.71
2016-12-18T12:28:02.064Z,20.69
2016-12-18T12:29:11.047Z,20.75
2016-12-18T12:30:20.089Z,20.71
2016-12-18T12:31:29.367Z,20.87
2016-12-18T12:32:38.341Z,20.84
2016-12-18T12:33:47.441Z,20.84
2016-12-18T12:34:56.486Z,20.84
2016-12-18T12:36:05.461Z,20.9
2016-12-18T12:37:14.504Z,20.94
2016-12-18T12:38:23.480Z,20.91
2016-12-18T12:39:32.481Z,20.9
2016-12-18T12:40:41.469Z,20.93
2016-12-18T12:41:50.446Z,20.9
2016-12-18T12:42:59.434Z,20.94
2016-12-18T12:44:08.419Z,20.94
2016-12-18T12:45:17.406Z,20.93
2016-12-18T12:46:26.444Z,20.97
2016-12-18T12:47:35.455Z,20.94
2016-12-18T12:48:44.799Z,21.05
2016-12-18T12:49:53.781Z,21.18
2016-12-18T12:51:02.790Z,21.08
2016-12-18T12:52:12.928Z,21.15
2016-12-18T12:53:24.364Z,21.21
2016-12-18T12:54:34.987Z,21.27
2016-12-18T12:55:44.506Z,21.31
2016-12-18T12:56:53.485Z,21.34
2016-12-18T12:58:02.497Z,21.38
2016-12-18T12:59:11.502Z,21.42
2016-12-18T13:00:20.486Z,21.43
2016-12-18T13:01:29.617Z,21.5
2016-12-18T13:02:38.620Z,21.45
2016-12-18T13:03:47.599Z,21.48
2016-12-18T13:04:56.730Z,21.52
2016-12-18T13:06:05.724Z,21.42
2016-12-18T13:07:14.705Z,21.39
2016-12-18T13:08:23.681Z,21.52
2016-12-18T13:09:32.655Z,21.5
2016-12-18T13:10:41.629Z,21.54
2016-12-18T13:11:50.611Z,21.65
2016-12-18T13:12:59.599Z,21.67
2016-12-18T13:14:08.599Z,21.58
2016-12-18T13:15:17.587Z,21.58
2016-12-18T13:16:26.559Z,21.64
2016-12-18T13:17:35.624Z,21.43
2016-12-18T13:18:44.621Z,21.5
2016-12-18T13:19:53.665Z,21.63
2016-12-18T13:21:02.719Z,21.58
2016-12-18T13:22:11.707Z,21.65
2016-12-18T13:23:20.902Z,21.61
2016-12-18T13:24:29.889Z,21.54
2016-12-18T13:25:38.886Z,21.46
2016-12-18T13:26:48.204Z,21.61
2016-12-18T13:27:57.172Z,21.73
2016-12-18T13:29:06.554Z,21.75
2016-12-18T13:30:15.677Z,21.82
2016-12-18T13:31:24.674Z,21.89
2016-12-18T13:32:33.929Z,21.79
2016-12-18T13:33:42.908Z,21.94
2016-12-18T13:34:51.963Z,22.02
2016-12-18T13:36:01.072Z,22.06
2016-12-18T13:37:10.160Z,22.09
2016-12-18T13:38:19.326Z,22.04
2016-12-18T13:39:28.345Z,22.06
2016-12-18T13:40:37.453Z,22.14
2016-12-18T13:41:46.485Z,22.17
2016-12-18T13:42:55.482Z,22.24
2016-12-18T13:44:04.471Z,22.24
2016-12-18T13:45:14.186Z,22.16
2016-12-18T13:46:23.218Z,22.09
2016-12-18T13:47:32.236Z,22.11
2016-12-18T13:48:41.652Z,22.2
2016-12-18T13:49:50.796Z,22.2
2016-12-18T13:50:59.919Z,22.24
2016-12-18T13:52:09.323Z,22.29
2016-12-18T13:53:18.621Z,22.34
2016-12-18T13:54:28.113Z,22.35
2016-12-18T13:55:37.169Z,22.27
2016-12-18T13:56:46.255Z,22.31
2016-12-18T13:57:55.372Z,22.23
2016-12-18T13:59:04.373Z,22.21
2016-12-18T14:00:13.364Z,22.31
2016-12-18T14:01:22.436Z,22.32
2016-12-18T14:02:31.439Z,22.31
2016-12-18T14:03:40.454Z,22.35
2016-12-18T14:04:49.530Z,22.35
2016-12-18T14:05:58.523Z,22.35
2016-12-18T14:07:07.754Z,22.29
2016-12-18T14:08:16.740Z,22.36
2016-12-18T14:09:25.724Z,22.36
2016-12-18T14:10:34.919Z,22.39
2016-12-18T14:11:43.907Z,22.39
2016-12-18T14:12:52.916Z,22.36
2016-12-18T14:14:01.912Z,22.43
2016-12-18T14:15:10.906Z,22.38
2016-12-18T14:16:20.287Z,22.31
2016-12-18T14:17:29.285Z,22.36
2016-12-18T14:18:38.304Z,22.42
2016-12-18T14:19:47.500Z,22.5
2016-12-18T14:20:56.498Z,22.42
2016-12-18T14:22:05.493Z,22.56
2016-12-18T14:23:14.560Z,22.69
2016-12-18T14:24:23.576Z,22.71
2016-12-18T14:25:32.569Z,22.86
2016-12-18T14:26:41.601Z,22.87
2016-12-18T14:27:50.582Z,22.79
2016-12-18T14:28:59.969Z,22.87
2016-12-18T14:30:08.961Z,23
2016-12-18T14:31:17.946Z,23.03
2016-12-18T14:32:26.973Z,23
2016-12-18T14:33:35.954Z,23.06
2016-12-18T14:34:45.095Z,23.05
2016-12-18T14:35:54.191Z,23
2016-12-18T14:37:03.220Z,22.98
2016-12-18T14:38:12.335Z,22.98
2016-12-18T14:39:21.429Z,22.98
2016-12-18T14:40:30.425Z,22.93
2016-12-18T14:41:39.792Z,22.97
2016-12-18T14:42:48.784Z,22.93
2016-12-18T14:43:57.779Z,23.03
2016-12-18T14:45:06.889Z,23.11
2016-12-18T14:46:15.872Z,23.06
2016-12-18T14:47:24.848Z,23.09
2016-12-18T14:48:33.836Z,23.16
2016-12-18T14:49:42.846Z,23.21
2016-12-18T14:50:51.924Z,23.21
2016-12-18T14:52:00.917Z,23.09
2016-12-18T14:53:09.907Z,23.09
2016-12-18T14:54:18.987Z,23
2016-12-18T14:55:27.987Z,23.19
2016-12-18T14:56:37.081Z,23.16
2016-12-18T14:57:46.093Z,23.19
2016-12-18T14:58:55.083Z,23.15
2016-12-18T15:00:04.165Z,23.15
2016-12-18T15:01:13.139Z,23.11
2016-12-18T15:02:22.127Z,23.13
2016-12-18T15:03:31.272Z,23.06
2016-12-18T15:04:40.246Z,23.15
2016-12-18T15:05:49.261Z,23.03
2016-12-18T15:06:58.232Z,23.09
2016-12-18T15:08:07.214Z,23.05
2016-12-18T15:09:16.473Z,23.09
2016-12-18T15:10:25.462Z,23.08
2016-12-18T15:11:34.446Z,23.12
2016-12-18T15:12:43.685Z,23.03
2016-12-18T15:13:52.668Z,23.01
2016-12-18T15:15:01.704Z,23
2016-12-18T15:16:10.801Z,22.97
2016-12-18T15:17:19.782Z,22.97
2016-12-18T15:18:28.816Z,22.87
2016-12-18T15:19:37.812Z,22.97
2016-12-18T15:20:46.796Z,22.86
2016-12-18T15:21:55.879Z,22.88
2016-12-18T15:23:05.204Z,22.9
2016-12-18T15:24:14.185Z,22.87
2016-12-18T15:25:23.289Z,22.91
2016-12-18T15:26:32.279Z,22.82
2016-12-18T15:27:41.256Z,22.93
2016-12-18T15:28:50.241Z,22.96
2016-12-18T15:29:59.231Z,22.97
2016-12-18T15:31:08.291Z,22.96
2016-12-18T15:32:17.268Z,22.91
2016-12-18T15:33:26.242Z,22.96
2016-12-18T15:34:35.570Z,23.03
2016-12-18T15:35:44.554Z,22.96
2016-12-18T15:36:53.564Z,23
2016-12-18T15:38:02.574Z,22.96
2016-12-18T15:39:11.569Z,22.97
2016-12-18T15:40:20.607Z,22.96
2016-12-18T15:41:29.609Z,23.08
2016-12-18T15:42:38.584Z,22.98
2016-12-18T15:43:47.633Z,23.05
2016-12-18T15:44:56.620Z,22.94
2016-12-18T15:46:05.629Z,23.03
2016-12-18T15:47:14.613Z,22.97
2016-12-18T15:48:23.599Z,23.01
2016-12-18T15:49:32.943Z,23.08
2016-12-18T15:50:41.924Z,22.97
2016-12-18T15:51:50.912Z,23.03
2016-12-18T15:52:59.935Z,23.03
2016-12-18T15:54:08.920Z,23.12
2016-12-18T15:55:17.908Z,23.12
2016-12-18T15:56:26.974Z,23.12
2016-12-18T15:57:35.963Z,23.03
2016-12-18T15:58:45.027Z,23.08
2016-12-18T15:59:54.121Z,23.11
2016-12-18T16:01:03.103Z,23.12
2016-12-18T16:02:12.129Z,23.13
2016-12-18T16:03:21.407Z,23.09
2016-12-18T16:04:30.392Z,23.08
2016-12-18T16:05:39.464Z,23.06
2016-12-18T16:06:48.441Z,22.96
2016-12-18T16:07:57.419Z,23.09
2016-12-18T16:09:06.540Z,23.13
2016-12-18T16:10:15.523Z,23.09
2016-12-18T16:11:24.511Z,23.03
2016-12-18T16:12:33.488Z,23.03
2016-12-18T16:13:42.508Z,23.19
2016-12-18T16:14:52.188Z,23.18
2016-12-18T16:16:01.529Z,23.18
2016-12-18T16:17:10.516Z,23.12
2016-12-18T16:18:19.598Z,23.19
2016-12-18T16:19:28.638Z,23.23
2016-12-18T16:20:37.610Z,23.23
2016-12-18T16:21:46.600Z,23.24
2016-12-18T16:22:55.585Z,23.24
2016-12-18T16:24:04.602Z,23.21
2016-12-18T16:25:13.665Z,23.15
2016-12-18T16:26:22.650Z,23.16
2016-12-18T16:27:31.624Z,23.24
2016-12-18T16:28:40.674Z,23.27
2016-12-18T16:29:49.655Z,23.18
2016-12-18T16:30:58.661Z,23.15
2016-12-18T16:32:07.656Z,23.21
2016-12-18T16:33:16.630Z,23.16
2016-12-18T16:34:25.681Z,23.25
2016-12-18T16:35:34.657Z,23.25
2016-12-18T16:36:43.652Z,23.31
2016-12-18T16:37:52.713Z,23.32
2016-12-18T16:39:01.696Z,23.31
2016-12-18T16:40:10.686Z,23.31
2016-12-18T16:41:19.679Z,23.34
2016-12-18T16:42:28.644Z,23.28
2016-12-18T16:43:38.185Z,23.28
2016-12-18T16:44:47.195Z,23.31
2016-12-18T16:45:56.168Z,23.35
2016-12-18T16:47:05.277Z,23.28
2016-12-18T16:48:14.267Z,23.31
2016-12-18T16:49:23.286Z,23.25
2016-12-18T16:50:32.319Z,23.25
2016-12-18T16:51:41.298Z,23.39
2016-12-18T16:52:50.321Z,23.41
2016-12-18T16:53:59.312Z,23.49
2016-12-18T16:55:08.343Z,23.43
2016-12-18T16:56:17.814Z,23.5
2016-12-18T16:57:26.804Z,23.41
2016-12-18T16:58:35.783Z,23.46
2016-12-18T16:59:45.124Z,23.36
2016-12-18T17:00:54.110Z,23.44
2016-12-18T17:02:03.088Z,23.35
2016-12-18T17:03:12.070Z,23.34
2016-12-18T17:04:21.073Z,23.35
2016-12-18T17:05:30.129Z,23.41
2016-12-18T17:06:39.114Z,23.31
2016-12-18T17:07:48.099Z,23.49
2016-12-18T17:08:57.344Z,23.43
2016-12-18T17:10:06.327Z,23.49
2016-12-18T17:11:15.435Z,23.56
2016-12-18T17:12:24.794Z,23.64
2016-12-18T17:13:34.123Z,23.71
2016-12-18T17:14:44.373Z,23.9
2016-12-18T17:15:53.350Z,24.01
2016-12-18T17:17:02.914Z,23.99
2016-12-18T17:18:11.989Z,24.02
2016-12-18T17:19:21.266Z,23.98
2016-12-18T17:20:30.239Z,24.02
2016-12-18T17:21:39.258Z,23.96
2016-12-18T17:22:48.246Z,24.02
2016-12-18T17:23:57.243Z,24.05
2016-12-18T17:25:06.523Z,24.01
2016-12-18T17:26:15.522Z,24.05
2016-12-18T17:27:24.682Z,24.02
2016-12-18T17:28:33.665Z,24.03
2016-12-18T17:29:42.664Z,24.08
2016-12-18T17:30:51.745Z,24.06
2016-12-18T17:32:00.738Z,24.16
2016-12-18T17:33:10.143Z,24.06
2016-12-18T17:34:19.141Z,24.08
2016-12-18T17:35:28.225Z,24.02
2016-12-18T17:36:37.771Z,24.03
2016-12-18T17:37:46.793Z,24.02
2016-12-18T17:38:55.774Z,24.06
2016-12-18T17:40:04.832Z,24.11
2016-12-18T17:41:13.826Z,24.26
2016-12-18T17:42:22.817Z,24.21
2016-12-18T17:43:31.805Z,24.26
2016-12-18T17:44:41.370Z,24.17
2016-12-18T17:45:50.686Z,24.18
2016-12-18T17:46:59.676Z,24.26
2016-12-18T17:48:08.795Z,24.28
2016-12-18T17:49:17.990Z,24.28
2016-12-18T17:50:26.960Z,24.24
2016-12-18T17:51:36.017Z,24.2
2016-12-18T17:52:45.017Z,24.21
2016-12-18T17:53:53.999Z,24.21
2016-12-18T17:55:03.091Z,24.17
2016-12-18T17:56:12.095Z,24.31
2016-12-18T17:57:21.075Z,24.27
2016-12-18T17:58:30.052Z,24.27
2016-12-18T17:59:39.258Z,24.39
2016-12-18T18:00:48.299Z,24.35
2016-12-18T18:01:57.289Z,24.33
2016-12-18T18:03:06.269Z,24.33
2016-12-18T18:04:15.565Z,24.39
2016-12-18T18:05:24.552Z,24.43
2016-12-18T18:06:33.546Z,24.43
2016-12-18T18:07:43.045Z,24.43
2016-12-18T18:08:52.662Z,24.46
2016-12-18T18:10:01.663Z,24.45
2016-12-18T18:11:10.655Z,24.39
2016-12-18T18:12:19.630Z,24.35
2016-12-18T18:13:28.761Z,24.33
2016-12-18T18:14:37.757Z,24.33
2016-12-18T18:15:46.734Z,24.39
2016-12-18T18:16:55.807Z,24.39
2016-12-18T18:18:04.785Z,24.38
2016-12-18T18:19:13.769Z,24.38
2016-12-18T18:20:22.764Z,24.31
2016-12-18T18:21:31.785Z,24.26
2016-12-18T18:22:40.761Z,24.3
2016-12-18T18:23:50.140Z,24.28
2016-12-18T18:24:59.112Z,24.27
2016-12-18T18:26:08.090Z,24.33
2016-12-18T18:27:17.085Z,24.31
2016-12-18T18:28:26.136Z,24.38
2016-12-18T18:29:35.133Z,24.38
2016-12-18T18:30:44.210Z,24.38
2016-12-18T18:31:53.197Z,24.45
2016-12-18T18:33:02.647Z,24.48
2016-12-18T18:34:11.643Z,24.35
2016-12-18T18:35:20.717Z,24.43
2016-12-18T18:36:30.323Z,24.38
2016-12-18T18:37:39.312Z,24.39
2016-12-18T18:38:48.356Z,24.38
2016-12-18T18:39:57.331Z,24.41
2016-12-18T18:41:06.312Z,24.35
2016-12-18T18:42:15.516Z,24.36
2016-12-18T18:43:24.486Z,24.42
2016-12-18T18:44:33.468Z,24.38
2016-12-18T18:45:42.777Z,24.45
2016-12-18T18:46:51.781Z,24.45
2016-12-18T18:48:00.812Z,24.42
2016-12-18T18:49:09.799Z,24.42
2016-12-18T18:50:18.797Z,24.49
2016-12-18T18:51:27.932Z,24.46
2016-12-18T18:52:37.028Z,24.55
2016-12-18T18:53:46.994Z,24.67
2016-12-18T18:54:56.021Z,24.55
2016-12-18T18:56:05.014Z,24.53
2016-12-18T18:57:14.201Z,24.55
2016-12-18T18:58:23.175Z,24.48
2016-12-18T18:59:32.203Z,24.49
2016-12-18T19:00:41.207Z,24.58
2016-12-18T19:01:50.204Z,24.5
2016-12-18T19:02:59.213Z,24.55
2016-12-18T19:04:08.353Z,24.63
2016-12-18T19:05:17.332Z,24.61
2016-12-18T19:06:26.329Z,24.61
2016-12-18T19:07:35.325Z,24.65
2016-12-18T19:08:44.314Z,24.6
2016-12-18T19:09:53.782Z,24.67
2016-12-18T19:11:03.102Z,24.65
2016-12-18T19:12:12.186Z,24.68
2016-12-18T19:13:21.325Z,24.74
2016-12-18T19:14:30.313Z,24.84
2016-12-18T19:15:39.325Z,24.77
2016-12-18T19:16:48.616Z,24.83
2016-12-18T19:17:57.839Z,24.83
2016-12-18T19:19:06.851Z,24.45
2016-12-18T19:20:15.836Z,24.36
2016-12-18T19:21:24.821Z,24.13
2016-12-18T19:22:33.874Z,24.09
2016-12-18T19:23:42.877Z,24.06
2016-12-18T19:24:51.865Z,24.09
2016-12-18T19:26:00.843Z,24.09
2016-12-18T19:27:09.850Z,24.03
2016-12-18T19:28:19.134Z,24.08
2016-12-18T19:29:30.307Z,24.06
2016-12-18T19:30:44.720Z,24.08
2016-12-18T19:31:59.217Z,24.06
2016-12-18T19:33:11.286Z,24.05
2016-12-18T19:34:20.270Z,24.06
2016-12-18T19:35:29.473Z,24.08
2016-12-18T19:36:38.766Z,24.12
2016-12-18T19:37:47.747Z,24.05
2016-12-18T19:38:56.893Z,24.09
2016-12-18T19:40:06.631Z,24.18
2016-12-18T19:41:15.626Z,24.13
2016-12-18T19:42:24.716Z,24.16
2016-12-18T19:43:33.945Z,24.21
2016-12-18T19:44:43.215Z,24.18
2016-12-18T19:45:53.013Z,24.16
2016-12-18T19:47:02.664Z,24.23
2016-12-18T19:48:11.666Z,24.18
2016-12-18T19:49:20.976Z,24.16
2016-12-18T19:50:30.027Z,24.17
2016-12-18T19:51:39.201Z,24.26
2016-12-18T19:52:49.675Z,24.24
2016-12-18T19:53:59.770Z,24.23
2016-12-18T19:55:09.355Z,24.21
2016-12-18T19:56:18.776Z,24.27
2016-12-18T19:57:27.846Z,24.24
2016-12-18T19:58:37.118Z,24.26
2016-12-18T19:59:46.236Z,24.26
2016-12-18T20:00:55.703Z,24.26
2016-12-18T20:02:05.079Z,24.27
2016-12-18T20:03:14.747Z,24.23
2016-12-18T20:04:25.795Z,24.3
2016-12-18T20:05:34.947Z,24.28
2016-12-18T20:06:44.059Z,24.21
2016-12-18T20:07:53.116Z,24.28
2016-12-18T20:09:02.147Z,24.36
2016-12-18T20:10:11.135Z,24.38
2016-12-18T20:11:20.207Z,24.42
2016-12-18T20:12:29.610Z,24.35
2016-12-18T20:13:39.438Z,24.31
2016-12-18T20:14:49.576Z,24.35
2016-12-18T20:15:58.770Z,24.41
2016-12-18T20:17:08.085Z,24.36
2016-12-18T20:18:17.651Z,24.36
2016-12-18T20:19:27.972Z,24.45
2016-12-18T20:20:38.191Z,24.42
2016-12-18T20:21:47.746Z,24.5
2016-12-18T20:22:57.372Z,24.48
2016-12-18T20:24:06.653Z,24.46
2016-12-18T20:25:15.653Z,24.48
2016-12-18T20:26:24.642Z,24.48
2016-12-18T20:27:33.616Z,24.46
2016-12-18T20:28:42.597Z,24.53
2016-12-18T20:29:51.768Z,24.54
2016-12-18T20:31:00.762Z,24.6
2016-12-18T20:32:09.894Z,24.67
2016-12-18T20:33:19.312Z,24.68
2016-12-18T20:34:28.289Z,24.64
2016-12-18T20:35:37.303Z,24.5
2016-12-18T20:36:46.593Z,24.64
2016-12-18T20:37:55.590Z,24.61
2016-12-18T20:39:05.201Z,24.6
2016-12-18T20:40:14.364Z,24.55
2016-12-18T20:41:24.181Z,24.65
2016-12-18T20:42:34.016Z,24.64
2016-12-18T20:43:43.198Z,24.57
2016-12-18T20:44:53.752Z,24.63
2016-12-18T20:46:02.733Z,24.65
2016-12-18T20:47:11.722Z,24.63
2016-12-18T20:48:21.019Z,24.63
2016-12-18T20:49:30.303Z,24.65
2016-12-18T20:50:39.290Z,24.65
2016-12-18T20:51:48.273Z,24.65
2016-12-18T20:52:57.661Z,24.67
2016-12-18T20:54:06.657Z,24.63
2016-12-18T20:55:15.678Z,24.61
2016-12-18T20:56:24.968Z,24.68
2016-12-18T20:57:33.945Z,24.67
2016-12-18T20:58:42.947Z,24.65
2016-12-18T20:59:51.933Z,24.68
2016-12-18T21:01:00.925Z,24.76
2016-12-18T21:02:10.087Z,24.76
2016-12-18T21:03:19.170Z,24.73
2016-12-18T21:04:28.142Z,24.63
2016-12-18T21:05:37.127Z,24.65
2016-12-18T21:06:46.097Z,24.7
2016-12-18T21:07:55.098Z,24.73
2016-12-18T21:09:04.085Z,24.65
2016-12-18T21:10:13.056Z,24.74
2016-12-18T21:11:22.617Z,24.73
2016-12-18T21:12:31.607Z,24.84
2016-12-18T21:13:40.860Z,24.83
2016-12-18T21:14:49.910Z,24.84
2016-12-18T21:15:58.887Z,24.84
2016-12-18T21:17:07.904Z,24.84
2016-12-18T21:18:16.920Z,24.87
2016-12-18T21:19:27.088Z,24.86
2016-12-18T21:20:36.132Z,24.86
2016-12-18T21:21:46.099Z,24.96
2016-12-18T21:22:55.087Z,24.94
2016-12-18T21:24:04.068Z,24.98
2016-12-18T21:25:13.058Z,24.99
2016-12-18T21:26:22.476Z,25.02
2016-12-18T21:27:31.489Z,25.01
2016-12-18T21:28:40.522Z,24.99
2016-12-18T21:29:49.806Z,25.03
2016-12-18T21:30:58.803Z,24.94
2016-12-18T21:32:07.941Z,25.03
2016-12-18T21:33:17.039Z,24.99
2016-12-18T21:34:26.036Z,24.94
2016-12-18T21:35:35.017Z,25.01
2016-12-18T21:36:44.055Z,25.02
2016-12-18T21:37:53.044Z,25.03
2016-12-18T21:39:02.076Z,25.11
2016-12-18T21:40:11.105Z,25.06
2016-12-18T21:41:20.094Z,25.03
2016-12-18T21:42:29.265Z,25.09
2016-12-18T21:43:38.467Z,25.09
2016-12-18T21:44:47.466Z,25.06
2016-12-18T21:45:56.714Z,25.11
2016-12-18T21:47:05.691Z,25.11
2016-12-18T21:48:14.682Z,25.13
2016-12-18T21:49:24.023Z,25.13
2016-12-18T21:50:33.089Z,25.11
2016-12-18T21:51:42.068Z,25.13
2016-12-18T21:52:51.214Z,25.18
2016-12-18T21:54:00.244Z,25.16
2016-12-18T21:55:09.240Z,25.16
2016-12-18T21:56:18.383Z,25.17
2016-12-18T21:57:27.355Z,25.26
2016-12-18T21:58:36.676Z,25.28
2016-12-18T21:59:45.731Z,25.17
2016-12-18T22:00:54.828Z,25.14
2016-12-18T22:02:04.273Z,25.21
2016-12-18T22:03:13.597Z,25.28
2016-12-18T22:04:22.616Z,25.29
2016-12-18T22:05:31.713Z,25.31
2016-12-18T22:06:40.783Z,25.21
2016-12-18T22:07:50.475Z,25.21
2016-12-18T22:08:59.488Z,25.2
2016-12-18T22:10:08.485Z,25.26
2016-12-18T22:11:17.712Z,25.29
2016-12-18T22:12:26.732Z,25.2
2016-12-18T22:13:35.715Z,25.17
2016-12-18T22:14:44.725Z,25.13
2016-12-18T22:15:54.185Z,25.16
2016-12-18T22:17:03.241Z,25.11
2016-12-18T22:18:12.423Z,25.18
2016-12-18T22:19:21.518Z,25.14
2016-12-18T22:20:31.389Z,25.14
2016-12-18T22:21:41.066Z,25.23
2016-12-18T22:22:50.079Z,25.06
2016-12-18T22:23:59.132Z,25.1
2016-12-18T22:25:08.112Z,25.17
2016-12-18T22:26:17.092Z,25.14
2016-12-18T22:27:26.280Z,25.1
2016-12-18T22:28:35.311Z,25.14
2016-12-18T22:29:44.527Z,25.11
2016-12-18T22:30:53.659Z,25.11
2016-12-18T22:32:02.641Z,25.06
2016-12-18T22:33:11.765Z,25.21
2016-12-18T22:34:20.804Z,25.18
2016-12-18T22:35:29.821Z,25.28
2016-12-18T22:36:38.886Z,24.87
2016-12-18T22:37:47.874Z,24.65
2016-12-18T22:38:56.875Z,24.5
2016-12-18T22:40:05.917Z,24.27
2016-12-18T22:41:14.929Z,23.99
2016-12-18T22:42:23.924Z,23.94
2016-12-18T22:43:32.915Z,23.84
2016-12-18T22:44:42.355Z,23.59
2016-12-18T22:45:51.367Z,23.51
2016-12-18T22:47:00.364Z,23.39
2016-12-18T22:48:09.407Z,23.27
2016-12-18T22:49:18.631Z,23.23
2016-12-18T22:50:27.627Z,23.08
2016-12-18T22:51:36.607Z,23
2016-12-18T22:52:45.678Z,22.87
2016-12-18T22:53:54.664Z,22.72
2016-12-18T22:55:03.641Z,22.58
2016-12-18T22:56:12.717Z,22.32
2016-12-18T22:57:21.690Z,22.16
2016-12-18T22:58:30.730Z,22.23
2016-12-18T22:59:39.819Z,21.9
2016-12-18T23:00:48.805Z,21.76
2016-12-18T23:01:57.845Z,21.71
2016-12-18T23:03:06.828Z,21.65
2016-12-18T23:04:15.802Z,21.39
2016-12-18T23:05:25.217Z,21.38
2016-12-18T23:06:34.205Z,21.4
2016-12-18T23:07:43.171Z,21.24
2016-12-18T23:08:52.200Z,21.1
2016-12-18T23:10:01.184Z,21.02
2016-12-18T23:11:10.164Z,20.94
2016-12-18T23:12:19.167Z,21.06
2016-12-18T23:13:28.144Z,20.97
2016-12-18T23:14:37.122Z,20.93
2016-12-18T23:15:46.129Z,20.78
2016-12-18T23:16:55.118Z,20.6
2016-12-18T23:18:04.102Z,20.76
2016-12-18T23:19:13.123Z,20.68
2016-12-18T23:20:22.100Z,20.56
2016-12-18T23:21:31.307Z,20.54
2016-12-18T23:22:40.305Z,20.43
2016-12-18T23:23:49.280Z,20.48
2016-12-18T23:24:58.452Z,20.4
2016-12-18T23:26:07.437Z,20.2
2016-12-18T23:27:16.416Z,20.1
2016-12-18T23:28:25.542Z,20.04
2016-12-18T23:29:34.542Z,19.9
2016-12-18T23:30:43.733Z,20.01
2016-12-18T23:31:52.786Z,19.98
2016-12-18T23:33:01.764Z,19.88
2016-12-18T23:34:11.038Z,19.76
2016-12-18T23:35:20.057Z,19.73
2016-12-18T23:36:29.030Z,19.75
2016-12-18T23:37:38.171Z,19.85
2016-12-18T23:38:47.160Z,19.65
2016-12-18T23:39:56.152Z,19.65
2016-12-18T23:41:05.266Z,19.57
2016-12-18T23:42:14.273Z,19.54
2016-12-18T23:43:23.240Z,19.64
2016-12-18T23:44:32.573Z,19.47
2016-12-18T23:45:41.555Z,19.61
2016-12-18T23:46:50.537Z,19.5
2016-12-18T23:47:59.506Z,19.35
2016-12-18T23:49:08.493Z,19.37
2016-12-18T23:50:17.584Z,19.33
2016-12-18T23:51:26.569Z,19.21
2016-12-18T23:52:35.566Z,19.07
2016-12-18T23:53:45.441Z,19.07
2016-12-18T23:54:54.413Z,19.05
2016-12-18T23:56:03.674Z,18.9
2016-12-18T23:57:12.845Z,18.83
2016-12-18T23:58:21.826Z,18.79
2016-12-18T23:59:31.186Z,18.76
